createdAt,value
2022-09-11T00:00:41.841Z,14.10
2022-09-11T00:03:12.523Z,14.10
2022-09-11T00:05:43.940Z,14.20
2022-09-11T00:08:19.795Z,14.20
2022-09-11T00:10:52.428Z,14.20
2022-09-11T00:13:25.446Z,14.20
2022-09-11T00:15:56.213Z,14.20
2022-09-11T00:18:28.401Z,14.20
2022-09-11T00:21:00.720Z,14.20
2022-09-11T00:23:33.634Z,14.20
2022-09-11T00:26:06.351Z,14.20
2022-09-11T00:28:37.148Z,14.10
2022-09-11T00:31:11.208Z,14.20
2022-09-11T00:33:42.207Z,14.20
2022-09-11T00:36:17.205Z,14.10
2022-09-11T00:38:50.804Z,14.10
2022-09-11T00:41:24.362Z,14.10
2022-09-11T00:43:59.839Z,14.20
2022-09-11T00:46:39.650Z,14.10
2022-09-11T00:49:20.597Z,14.10
2022-09-11T00:51:56.281Z,14.10
2022-09-11T00:54:34.116Z,14.10
2022-09-11T00:57:09.651Z,14.10
2022-09-11T00:59:44.316Z,14.10
2022-09-11T01:02:15.935Z,14.10
2022-09-11T01:04:46.295Z,14.10
2022-09-11T01:07:18.330Z,14.20
2022-09-11T01:13:11.872Z,14.10
2022-09-11T01:15:49.954Z,14.10
2022-09-11T01:18:29.862Z,14.20
2022-09-11T01:21:36.616Z,14.10
2022-09-11T01:24:25.604Z,14.10
2022-09-11T01:27:19.499Z,14.10
2022-09-11T01:29:59.401Z,14.10
2022-09-11T01:32:40.669Z,14.10
2022-09-11T01:35:18.483Z,14.10
2022-09-11T01:37:57.605Z,14.10
2022-09-11T01:40:33.713Z,14.10
2022-09-11T01:43:09.842Z,14.10
2022-09-11T01:45:47.567Z,14.10
2022-09-11T01:48:23.632Z,14.10
2022-09-11T01:50:57.213Z,14.10
2022-09-11T01:53:35.301Z,14.10
2022-09-11T01:56:10.671Z,14.10
2022-09-11T01:58:43.658Z,14.10
2022-09-11T02:01:23.359Z,14.10
2022-09-11T02:04:01.223Z,14.10
2022-09-11T02:06:37.049Z,14.10
2022-09-11T02:09:12.927Z,14.10
2022-09-11T02:11:45.710Z,14.10
2022-09-11T02:14:23.564Z,14.10
2022-09-11T02:17:09.887Z,14.10
2022-09-11T02:19:41.037Z,14.10
2022-09-11T02:22:11.478Z,14.10
2022-09-11T02:24:42.092Z,14.10
2022-09-11T02:27:17.886Z,14.10
2022-09-11T02:29:48.637Z,14.10
2022-09-11T02:32:22.037Z,14.10
2022-09-11T02:34:55.583Z,14.10
2022-09-11T02:37:41.309Z,14.10
2022-09-11T02:40:44.189Z,14.10
2022-09-11T02:43:34.217Z,14.10
2022-09-11T02:46:39.071Z,14.10
2022-09-11T02:49:25.020Z,14.10
2022-09-11T02:52:07.285Z,14.10
2022-09-11T02:54:47.848Z,14.10
2022-09-11T02:57:23.895Z,14.00
2022-09-11T03:00:00.422Z,14.00
2022-09-11T03:02:32.536Z,14.00
2022-09-11T03:05:05.246Z,14.00
2022-09-11T03:07:35.912Z,14.10
2022-09-11T03:10:06.484Z,14.10
2022-09-11T03:12:36.697Z,14.10
2022-09-11T03:15:09.776Z,14.10
2022-09-11T03:17:40.400Z,14.10
2022-09-11T03:20:13.981Z,14.10
2022-09-11T03:22:44.163Z,14.10
2022-09-11T03:25:15.250Z,14.10
2022-09-11T03:27:45.355Z,14.00
2022-09-11T03:30:16.360Z,13.90
2022-09-11T03:32:46.472Z,13.90
2022-09-11T03:35:19.303Z,13.90
2022-09-11T03:37:50.548Z,13.80
2022-09-11T03:40:20.669Z,13.80
2022-09-11T03:42:51.065Z,13.80
2022-09-11T03:45:21.518Z,13.70
2022-09-11T03:47:51.796Z,13.70
2022-09-11T03:50:24.551Z,13.80
2022-09-11T03:52:54.963Z,13.70
2022-09-11T03:55:25.703Z,13.70
2022-09-11T03:57:55.911Z,13.70
2022-09-11T04:00:26.391Z,13.70
2022-09-11T04:02:56.630Z,13.60
2022-09-11T04:05:29.664Z,13.70
2022-09-11T04:07:59.732Z,13.60
2022-09-11T04:10:29.917Z,13.60
2022-09-11T04:13:00.288Z,13.60
2022-09-11T04:15:31.522Z,13.60
2022-09-11T04:18:05.471Z,13.60
2022-09-11T04:20:42.452Z,13.70
2022-09-11T04:23:12.546Z,13.60
2022-09-11T04:25:42.611Z,13.60
2022-09-11T04:28:12.896Z,13.60
2022-09-11T04:30:43.401Z,13.60
2022-09-11T04:33:13.556Z,13.50
2022-09-11T04:35:46.329Z,13.60
2022-09-11T04:38:16.384Z,13.60
2022-09-11T04:40:46.562Z,13.60
2022-09-11T04:43:17.924Z,13.60
2022-09-11T04:45:48.036Z,13.60
2022-09-11T04:48:18.246Z,13.70
2022-09-11T04:50:51.036Z,13.70
2022-09-11T04:53:21.166Z,13.70
2022-09-11T04:55:51.263Z,13.80
2022-09-11T04:58:21.384Z,13.80
2022-09-11T05:00:52.078Z,13.80
2022-09-11T05:03:22.231Z,13.80
2022-09-11T05:05:55.055Z,13.90
2022-09-11T05:08:27.602Z,13.90
2022-09-11T05:11:00.811Z,13.90
2022-09-11T05:13:36.068Z,13.90
2022-09-11T05:16:08.339Z,13.90
2022-09-11T05:18:38.834Z,14.00
2022-09-11T05:21:16.355Z,13.90
2022-09-11T05:23:50.313Z,14.00
2022-09-11T05:26:22.852Z,14.00
2022-09-11T05:28:58.074Z,14.10
2022-09-11T05:31:29.350Z,14.10
2022-09-11T05:34:00.680Z,14.10
2022-09-11T05:36:35.518Z,14.10
2022-09-11T05:39:07.167Z,14.10
2022-09-11T05:41:37.231Z,14.10
2022-09-11T05:44:07.647Z,14.10
2022-09-11T05:46:37.804Z,14.10
2022-09-11T05:49:07.960Z,14.10
2022-09-11T05:51:41.881Z,14.10
2022-09-11T05:54:12.062Z,14.10
2022-09-11T05:56:42.435Z,14.20
2022-09-11T05:59:17.559Z,14.20
2022-09-11T06:01:48.010Z,14.10
2022-09-11T06:04:18.724Z,14.20
2022-09-11T06:06:51.469Z,14.20
2022-09-11T06:09:21.567Z,14.30
2022-09-11T06:11:51.701Z,14.20
2022-09-11T06:14:22.209Z,14.20
2022-09-11T06:16:52.676Z,14.30
2022-09-11T06:19:22.843Z,14.30
2022-09-11T06:21:56.519Z,14.20
2022-09-11T06:24:26.681Z,14.30
2022-09-11T06:26:56.736Z,14.30
2022-09-11T06:29:26.880Z,14.30
2022-09-11T06:31:57.022Z,14.30
2022-09-11T06:34:27.152Z,14.30
2022-09-11T06:36:59.765Z,14.30
2022-09-11T06:39:30.203Z,14.30
2022-09-11T06:42:00.331Z,14.40
2022-09-11T06:44:30.440Z,14.40
2022-09-11T06:47:00.593Z,14.40
2022-09-11T06:49:31.185Z,14.40
2022-09-11T06:52:03.848Z,14.40
2022-09-11T06:54:33.941Z,14.40
2022-09-11T06:57:04.045Z,14.40
2022-09-11T06:59:34.067Z,14.50
2022-09-11T07:02:04.623Z,14.50
2022-09-11T07:04:34.975Z,14.50
2022-09-11T07:07:08.039Z,14.50
2022-09-11T07:09:38.245Z,14.60
2022-09-11T07:12:10.052Z,14.60
2022-09-11T07:14:41.474Z,14.70
2022-09-11T07:17:11.518Z,14.70
2022-09-11T07:19:41.630Z,14.70
2022-09-11T07:22:15.235Z,14.80
2022-09-11T07:24:47.436Z,14.90
2022-09-11T07:27:19.589Z,14.90
2022-09-11T07:29:49.785Z,14.90
2022-09-11T07:32:20.031Z,14.90
2022-09-11T07:34:50.152Z,14.90
2022-09-11T07:37:23.046Z,15.00
2022-09-11T07:39:53.332Z,15.00
2022-09-11T07:42:23.532Z,15.10
2022-09-11T07:44:53.644Z,15.10
2022-09-11T07:47:23.736Z,15.10
2022-09-11T07:49:53.895Z,15.20
2022-09-11T07:52:27.068Z,15.20
2022-09-11T07:54:57.189Z,15.30
2022-09-11T07:57:27.649Z,15.30
2022-09-11T07:59:57.796Z,15.40
2022-09-11T08:02:28.195Z,15.40
2022-09-11T08:04:58.446Z,15.50
2022-09-11T08:07:31.151Z,15.50
2022-09-11T08:10:23.688Z,15.50
2022-09-11T08:12:55.773Z,15.50
2022-09-11T08:15:29.648Z,15.60
2022-09-11T08:17:59.896Z,15.70
2022-09-11T08:20:29.943Z,15.70
2022-09-11T08:23:02.684Z,15.70
2022-09-11T08:25:32.884Z,15.70
2022-09-11T08:28:02.980Z,15.80
2022-09-11T08:30:34.840Z,15.90
2022-09-11T08:33:05.032Z,15.90
2022-09-11T08:35:35.760Z,15.90
2022-09-11T08:38:08.460Z,16.00
2022-09-11T08:40:41.743Z,16.10
2022-09-11T08:43:24.671Z,16.10
2022-09-11T08:45:59.082Z,16.10
2022-09-11T08:48:37.227Z,16.20
2022-09-11T08:51:08.567Z,16.20
2022-09-11T08:53:41.827Z,16.20
2022-09-11T08:56:18.525Z,16.30
2022-09-11T08:59:07.874Z,16.40
2022-09-11T09:01:47.329Z,16.50
2022-09-11T09:04:45.631Z,16.50
2022-09-11T09:07:28.308Z,16.60
2022-09-11T09:10:13.310Z,16.60
2022-09-11T09:12:54.534Z,16.50
2022-09-11T09:15:36.968Z,16.60
2022-09-11T09:18:13.975Z,16.60
2022-09-11T09:20:49.600Z,16.70
2022-09-11T09:23:24.781Z,16.80
2022-09-11T09:25:58.712Z,16.80
2022-09-11T09:28:37.995Z,16.80
2022-09-11T09:31:12.228Z,16.80
2022-09-11T09:33:51.932Z,16.80
2022-09-11T09:36:28.127Z,17.00
2022-09-11T09:38:58.950Z,17.10
2022-09-11T09:42:05.301Z,17.20
2022-09-11T09:44:53.800Z,17.30
2022-09-11T09:47:24.106Z,17.20
2022-09-11T09:49:55.012Z,17.20
2022-09-11T09:52:28.166Z,17.10
2022-09-11T09:55:03.020Z,17.20
2022-09-11T09:57:40.031Z,17.10
2022-09-11T10:00:19.968Z,17.10
2022-09-11T10:02:55.236Z,17.10
2022-09-11T10:05:31.215Z,17.20
2022-09-11T10:08:03.802Z,17.20
2022-09-11T10:10:36.533Z,17.20
2022-09-11T10:13:25.556Z,17.30
2022-09-11T10:15:59.931Z,17.30
2022-09-11T10:18:46.232Z,17.30
2022-09-11T10:21:29.532Z,17.30
2022-09-11T10:24:02.319Z,17.40
2022-09-11T10:26:36.987Z,17.30
2022-09-11T10:29:17.338Z,17.30
2022-09-11T10:31:54.945Z,17.40
2022-09-11T10:34:28.551Z,17.40
2022-09-11T10:37:02.486Z,17.40
2022-09-11T10:39:35.451Z,17.50
2022-09-11T10:42:16.888Z,17.60
2022-09-11T10:44:50.961Z,17.60
2022-09-11T10:47:28.463Z,17.70
2022-09-11T10:50:25.195Z,17.70
2022-09-11T10:53:18.605Z,17.70
2022-09-11T10:55:57.346Z,17.70
2022-09-11T10:58:33.292Z,17.80
2022-09-11T11:01:06.187Z,17.80
2022-09-11T11:03:36.752Z,17.80
2022-09-11T11:06:23.861Z,17.80
2022-09-11T11:09:25.639Z,17.70
2022-09-11T11:12:21.060Z,17.60
2022-09-11T11:15:29.509Z,17.70
2022-09-11T11:18:21.948Z,17.70
2022-09-11T11:21:01.425Z,17.80
2022-09-11T11:23:54.117Z,17.80
2022-09-11T11:26:45.044Z,17.90
2022-09-11T11:29:47.072Z,18.10
2022-09-11T11:32:32.623Z,18.10
2022-09-11T11:35:27.165Z,18.20
2022-09-11T11:38:04.646Z,18.20
2022-09-11T11:40:39.734Z,18.20
2022-09-11T11:43:17.576Z,18.20
2022-09-11T11:45:52.240Z,18.20
2022-09-11T11:48:29.414Z,18.10
2022-09-11T11:51:07.864Z,18.20
2022-09-11T11:53:44.054Z,18.30
2022-09-11T11:56:23.525Z,18.30
2022-09-11T11:59:00.204Z,18.30
2022-09-11T12:01:41.079Z,18.30
2022-09-11T12:04:24.652Z,18.20
2022-09-11T12:06:57.672Z,18.20
2022-09-11T12:09:31.611Z,18.30
2022-09-11T12:12:10.164Z,18.50
2022-09-11T12:14:41.116Z,18.80
2022-09-11T12:17:26.492Z,18.80
2022-09-11T12:20:33.758Z,18.90
2022-09-11T12:23:07.436Z,19.00
2022-09-11T12:26:08.494Z,19.00
2022-09-11T12:28:41.038Z,19.00
2022-09-11T12:31:13.805Z,19.00
2022-09-11T12:33:58.003Z,18.90
2022-09-11T12:36:38.963Z,18.80
2022-09-11T12:39:27.916Z,18.70
2022-09-11T12:42:48.578Z,18.60
2022-09-11T12:45:38.601Z,18.50
2022-09-11T12:48:12.581Z,18.40
2022-09-11T12:50:44.053Z,18.50
2022-09-11T12:53:24.051Z,18.40
2022-09-11T12:56:02.129Z,18.40
2022-09-11T12:58:38.460Z,18.40
2022-09-11T13:01:21.557Z,18.30
2022-09-11T13:03:59.861Z,18.30
2022-09-11T13:06:43.422Z,18.30
2022-09-11T13:09:24.392Z,18.40
2022-09-11T13:11:58.735Z,18.40
2022-09-11T13:14:51.598Z,18.40
2022-09-11T13:17:30.765Z,18.40
2022-09-11T13:20:24.381Z,18.40
2022-09-11T13:22:58.634Z,18.50
2022-09-11T13:25:31.202Z,18.50
2022-09-11T13:28:05.031Z,18.50
2022-09-11T13:30:35.521Z,18.60
2022-09-11T13:33:10.853Z,18.60
2022-09-11T13:35:42.841Z,18.60
2022-09-11T13:38:18.461Z,18.60
2022-09-11T13:40:52.077Z,18.70
2022-09-11T13:43:29.830Z,18.80
2022-09-11T13:46:17.469Z,19.00
2022-09-11T13:48:50.700Z,19.00
2022-09-11T13:51:25.343Z,18.90
2022-09-11T13:54:04.121Z,18.80
2022-09-11T13:56:47.214Z,18.80
2022-09-11T13:59:52.161Z,18.90
2022-09-11T14:02:51.056Z,19.00
2022-09-11T14:05:26.176Z,19.20
2022-09-11T14:08:08.107Z,19.40
2022-09-11T14:10:49.641Z,19.40
2022-09-11T14:13:23.338Z,19.50
2022-09-11T14:16:00.344Z,19.50
2022-09-11T14:18:36.134Z,19.30
2022-09-11T14:21:15.522Z,19.20
2022-09-11T14:23:50.271Z,19.10
2022-09-11T14:26:22.997Z,19.00
2022-09-11T14:29:04.117Z,18.80
2022-09-11T14:31:40.109Z,18.60
2022-09-11T14:34:22.085Z,18.50
2022-09-11T14:36:59.437Z,18.30
2022-09-11T14:39:36.112Z,18.20
2022-09-11T14:42:10.252Z,18.20
2022-09-11T14:44:42.241Z,18.20
2022-09-11T14:47:20.133Z,18.20
2022-09-11T14:49:50.970Z,18.00
2022-09-11T14:52:25.105Z,18.00
2022-09-11T14:54:56.210Z,18.00
2022-09-11T14:57:32.066Z,18.00
2022-09-11T15:00:02.330Z,18.10
2022-09-11T15:02:35.051Z,18.20
2022-09-11T15:05:05.328Z,18.30
2022-09-11T15:07:36.545Z,18.40
2022-09-11T15:10:07.314Z,18.50
2022-09-11T15:12:37.421Z,18.50
2022-09-11T15:15:08.937Z,18.30
2022-09-11T15:17:41.831Z,18.30
2022-09-11T15:20:13.357Z,18.10
2022-09-11T15:22:44.830Z,18.00
2022-09-11T15:25:15.392Z,17.90
2022-09-11T15:27:45.525Z,17.90
2022-09-11T15:30:16.032Z,17.90
2022-09-11T15:32:48.898Z,17.90
2022-09-11T15:35:21.851Z,17.80
2022-09-11T15:37:53.944Z,17.80
2022-09-11T15:40:24.865Z,17.80
2022-09-11T15:42:54.976Z,17.70
2022-09-11T15:45:25.130Z,17.70
2022-09-11T15:47:59.296Z,17.70
2022-09-11T15:50:30.343Z,17.70
2022-09-11T15:53:02.040Z,17.60
2022-09-11T15:55:32.503Z,17.60
2022-09-11T15:58:03.438Z,17.50
2022-09-11T16:00:33.592Z,17.50
2022-09-11T16:03:06.282Z,17.50
2022-09-11T16:05:43.184Z,17.50
2022-09-11T16:08:15.766Z,17.40
2022-09-11T16:10:46.145Z,17.50
2022-09-11T16:13:16.313Z,17.50
2022-09-11T16:15:46.582Z,17.40
2022-09-11T16:18:19.924Z,17.30
2022-09-11T16:20:59.231Z,17.30
2022-09-11T16:23:30.920Z,17.30
2022-09-11T16:26:06.997Z,17.30
2022-09-11T16:28:38.779Z,17.30
2022-09-11T16:31:10.529Z,17.30
2022-09-11T16:33:48.045Z,17.30
2022-09-11T16:36:21.126Z,17.30
2022-09-11T16:38:52.831Z,17.30
2022-09-11T16:41:25.706Z,17.30
2022-09-11T16:43:56.798Z,17.20
2022-09-11T16:46:29.776Z,17.20
2022-09-11T16:49:03.273Z,17.10
2022-09-11T16:51:34.323Z,17.00
2022-09-11T16:54:04.960Z,16.90
2022-09-11T16:56:35.113Z,16.90
2022-09-11T16:59:05.220Z,16.90
2022-09-11T17:01:38.146Z,16.90
2022-09-11T17:04:10.820Z,16.80
2022-09-11T17:06:40.964Z,16.90
2022-09-11T17:09:11.055Z,16.80
2022-09-11T17:11:41.991Z,16.80
2022-09-11T17:14:12.659Z,16.80
2022-09-11T17:16:43.829Z,16.80
2022-09-11T17:19:16.620Z,16.80
2022-09-11T17:21:46.892Z,16.80
2022-09-11T17:24:20.397Z,16.80
2022-09-11T17:26:51.093Z,16.80
2022-09-11T17:29:21.681Z,16.70
2022-09-11T17:32:05.106Z,16.70
2022-09-11T17:34:47.047Z,16.70
2022-09-11T17:37:17.677Z,16.70
2022-09-11T17:39:48.171Z,16.70
2022-09-11T17:42:18.502Z,16.60
2022-09-11T17:44:48.568Z,16.70
2022-09-11T17:47:19.675Z,16.60
2022-09-11T17:49:52.425Z,16.60
2022-09-11T17:52:22.608Z,16.60
2022-09-11T17:54:52.706Z,16.60
2022-09-11T17:57:22.951Z,16.60
2022-09-11T17:59:53.164Z,16.50
2022-09-11T18:02:23.732Z,16.50
2022-09-11T18:04:56.465Z,16.50
2022-09-11T18:07:26.806Z,16.50
2022-09-11T18:09:57.059Z,16.40
2022-09-11T18:12:29.082Z,16.40
2022-09-11T18:15:00.264Z,16.30
2022-09-11T18:17:30.388Z,16.30
2022-09-11T18:20:03.459Z,16.30
2022-09-11T18:22:34.451Z,16.30
2022-09-11T18:25:04.667Z,16.20
2022-09-11T18:27:35.222Z,16.30
2022-09-11T18:30:05.409Z,16.20
2022-09-11T18:32:35.571Z,16.20
2022-09-11T18:35:10.023Z,16.10
2022-09-11T18:37:40.219Z,16.10
2022-09-11T18:40:11.828Z,16.10
2022-09-11T18:42:43.602Z,16.00
2022-09-11T18:45:16.219Z,15.90
2022-09-11T18:47:48.491Z,15.90
2022-09-11T18:50:22.847Z,15.80
2022-09-11T18:52:53.372Z,15.70
2022-09-11T18:55:24.615Z,15.70
2022-09-11T18:57:54.788Z,15.70
2022-09-11T19:00:25.042Z,15.70
2022-09-11T19:03:00.231Z,15.60
2022-09-11T19:05:33.500Z,15.60
2022-09-11T19:08:03.902Z,15.50
2022-09-11T19:10:34.257Z,15.50
2022-09-11T19:13:04.278Z,15.50
2022-09-11T19:15:34.391Z,15.40
2022-09-11T19:18:05.470Z,15.40
2022-09-11T19:20:38.161Z,15.30
2022-09-11T19:23:09.310Z,15.30
2022-09-11T19:25:39.524Z,15.30
2022-09-11T19:28:09.679Z,15.20
2022-09-11T19:30:43.066Z,15.20
2022-09-11T19:33:13.560Z,15.30
2022-09-11T19:35:46.145Z,15.20
2022-09-11T19:38:16.362Z,15.20
2022-09-11T19:40:46.789Z,15.20
2022-09-11T19:43:17.568Z,15.20
2022-09-11T19:45:47.793Z,15.20
2022-09-11T19:48:18.022Z,15.10
2022-09-11T19:50:50.831Z,15.10
2022-09-11T19:53:20.996Z,15.10
2022-09-11T19:55:56.181Z,15.10
2022-09-11T19:58:27.456Z,15.10
2022-09-11T20:00:57.789Z,15.00
2022-09-11T20:03:28.308Z,15.00
2022-09-11T20:06:01.477Z,15.00
2022-09-11T20:08:31.927Z,15.00
2022-09-11T20:11:05.738Z,14.90
2022-09-11T20:13:37.063Z,14.90
2022-09-11T20:16:08.730Z,14.90
2022-09-11T20:18:39.052Z,14.90
2022-09-11T20:21:15.665Z,14.80
2022-09-11T20:23:47.148Z,14.70
2022-09-11T20:26:21.353Z,14.70
2022-09-11T20:28:57.791Z,14.70
2022-09-11T20:31:30.413Z,14.60
2022-09-11T20:34:01.073Z,14.60
2022-09-11T20:36:33.959Z,14.60
2022-09-11T20:39:04.019Z,14.50
2022-09-11T20:41:35.961Z,14.60
2022-09-11T20:44:07.374Z,14.60
2022-09-11T20:46:37.577Z,14.50
2022-09-11T20:49:08.687Z,14.50
2022-09-11T20:51:42.494Z,14.40
2022-09-11T20:54:13.229Z,14.40
2022-09-11T20:56:44.519Z,14.30
2022-09-11T20:59:14.922Z,14.30
2022-09-11T21:01:45.289Z,14.30
2022-09-11T21:04:15.497Z,14.20
2022-09-11T21:06:48.295Z,14.30
2022-09-11T21:09:18.807Z,14.20
2022-09-11T21:11:49.408Z,14.10
2022-09-11T21:14:20.115Z,14.20
2022-09-11T21:16:50.295Z,14.10
2022-09-11T21:19:20.412Z,14.10
2022-09-11T21:21:53.131Z,14.10
2022-09-11T21:24:23.341Z,14.00
2022-09-11T21:26:53.492Z,14.00
2022-09-11T21:29:23.853Z,14.00
2022-09-11T21:31:54.031Z,14.00
2022-09-11T21:34:24.158Z,13.90
2022-09-11T21:36:56.896Z,13.90
2022-09-11T21:39:27.489Z,13.90
2022-09-11T21:41:57.644Z,13.90
2022-09-11T21:44:27.776Z,13.80
2022-09-11T21:46:57.900Z,13.80
2022-09-11T21:49:27.997Z,13.70
2022-09-11T21:52:00.738Z,13.60
2022-09-11T21:54:31.977Z,13.60
2022-09-11T21:57:02.401Z,13.60
2022-09-11T21:59:32.892Z,13.60
2022-09-11T22:02:03.981Z,13.60
2022-09-11T22:04:34.737Z,13.50
2022-09-11T22:07:07.639Z,13.50
2022-09-11T22:09:38.315Z,13.50
2022-09-11T22:12:09.102Z,13.50
2022-09-11T22:14:39.347Z,13.50
2022-09-11T22:17:09.745Z,13.40
2022-09-11T22:19:40.186Z,13.40
2022-09-11T22:22:12.898Z,13.30
2022-09-11T22:24:43.065Z,13.30
2022-09-11T22:27:14.257Z,13.20
2022-09-11T22:29:47.062Z,13.20
2022-09-11T22:32:17.351Z,13.20
2022-09-11T22:34:47.515Z,13.30
2022-09-11T22:37:20.343Z,13.30
2022-09-11T22:39:50.620Z,13.30
2022-09-11T22:42:20.794Z,13.30
2022-09-11T22:44:50.913Z,13.20
2022-09-11T22:47:21.142Z,13.20
2022-09-11T22:49:51.303Z,13.20
2022-09-11T22:52:24.061Z,13.20
2022-09-11T22:54:54.196Z,13.10
2022-09-11T22:57:27.861Z,13.00
2022-09-11T22:59:59.159Z,13.10
2022-09-11T23:02:29.255Z,13.00
2022-09-11T23:05:11.825Z,13.00
2022-09-11T23:07:45.001Z,12.90
2022-09-11T23:10:15.078Z,12.90
2022-09-11T23:12:45.853Z,12.90
2022-09-11T23:15:16.611Z,12.90
2022-09-11T23:17:47.054Z,12.90
2022-09-11T23:20:18.483Z,13.00
2022-09-11T23:22:51.205Z,12.90
2022-09-11T23:25:22.596Z,12.90
2022-09-11T23:27:53.490Z,12.80
2022-09-11T23:30:23.776Z,12.90
2022-09-11T23:32:56.624Z,12.80
2022-09-11T23:35:26.781Z,12.80
2022-09-11T23:37:59.458Z,12.80
2022-09-11T23:40:33.287Z,12.80
2022-09-11T23:43:04.003Z,12.70
2022-09-11T23:45:34.187Z,12.70
2022-09-11T23:48:04.731Z,12.70
2022-09-11T23:50:34.879Z,12.70
2022-09-11T23:53:07.824Z,12.70
2022-09-11T23:55:42.187Z,12.70
2022-09-11T23:58:12.274Z,12.60
